Filia Ariea — PIET — position and weather

sailwx.info

Track history (hours):
 
Tides and Currents Weather Stations Pressure Air Temp Water Temp Dewpoint Dewpoint Depression Visibility Wind Speed Wind Dir Waves Ship Positions

Filia Ariea

Last reported at 2014-Nov-28 06:32 UTC. Time now 2014-Nov-28 22:53 UTC.
Position N 50°32' E 000°04'.

Length 90 m; draft 4.5 m.

Type: Cargo ship. MMSI: 244662000.

Date/timePositionNaut miles runAvg speedWind from/ knotsBaromVisibWave heightAir tempDewpointWater temp
2014-Nov-28 06:32N 50°32' E 000°04'1212.0
2014-Nov-28 05:33N 50°36' E 000°21'1211.6
2014-Nov-28 04:33N 50°41' E 000°38'1110.9
2014-Nov-28 03:33N 50°47' E 000°52'1310.2
2014-Nov-28 02:17N 50°55' E 001°08'810.3
2014-Nov-28 01:33N 50°60' E 001°18'1211.9
2014-Nov-28 00:33N 51°07' E 001°32'1413.8
2014-Nov-27 23:34N 51°17' E 001°48'1313.1
2014-Nov-27 22:33N 51°27' E 002°00'1312.3
2014-Nov-27 21:32N 51°37' E 002°13'59 9.7
2014-Nov-27 15:27N 52°03' E 003°40'1011.1
2014-Nov-27 14:33N 52°01' E 003°56'1211.9
2014-Nov-27 13:33N 51°56' E 004°13'7 7.5
2014-Nov-27 12:33N 51°54' E 004°25'0 0.0
2014-Nov-27 11:27N 51°54' E 004°25'0 0.0
2014-Nov-27 10:33N 51°54' E 004°25'0 0.0
2014-Nov-27 09:32N 51°54' E 004°25'0 0.0
2014-Nov-27 08:32N 51°54' E 004°25'0 0.0
2014-Nov-27 07:31N 51°54' E 004°25'0 0.0
2014-Nov-27 06:28N 51°54' E 004°25'0 0.0
2014-Nov-27 05:33N 51°54' E 004°25'0 0.0
2014-Nov-27 04:33N 51°54' E 004°25'0 0.0
2014-Nov-27 03:32N 51°54' E 004°25'0 0.0
2014-Nov-27 02:33N 51°54' E 004°25'0 0.0
2014-Nov-27 01:33N 51°54' E 004°25'0 0.0
2014-Nov-27 00:33N 51°54' E 004°25'4 3.8
2014-Nov-26 23:33N 51°52' E 004°20'1010.1
2014-Nov-26 22:34N 51°48' E 004°35'5 4.7
2014-Nov-26 21:33N 51°49' E 004°43'3 3.2
2014-Nov-26 20:33N 51°49' E 004°48'4 3.7
2014-Nov-26 19:33N 51°49' E 004°54'2 2.2
2014-Nov-26 18:33N 51°50' E 004°57'0 0.2
2014-Nov-26 17:31N 51°50' E 004°57'0 0.0
2014-Nov-26 16:31N 51°50' E 004°57'0 0.0
2014-Nov-26 15:31N 51°50' E 004°57'0 0.0
2014-Nov-26 14:30N 51°50' E 004°57'0 0.0
2014-Nov-26 13:33N 51°50' E 004°57'0 0.0
2014-Nov-26 12:32N 51°50' E 004°57'0 0.0
2014-Nov-26 11:32N 51°50' E 004°57'0 0.0
2014-Nov-26 10:28N 51°50' E 004°57'0 0.0
2014-Nov-26 09:28N 51°50' E 004°57'0 0.0
2014-Nov-26 08:31N 51°50' E 004°57'0 0.0
2014-Nov-26 07:33N 51°50' E 004°57'0 0.0
2014-Nov-26 06:33N 51°50' E 004°57'0 0.0
2014-Nov-26 05:32N 51°50' E 004°57'0 0.0
2014-Nov-26 04:32N 51°50' E 004°57'0 0.0
2014-Nov-26 03:25N 51°50' E 004°57'0 0.0
2014-Nov-26 02:31N 51°50' E 004°57'0 0.0
2014-Nov-26 01:31N 51°50' E 004°57'0 0.0
2014-Nov-26 00:30N 51°50' E 004°57'0 0.0
2014-Nov-25 23:33N 51°50' E 004°57'0 0.0
2014-Nov-25 22:32N 51°50' E 004°57'0 0.0
2014-Nov-25 21:32N 51°50' E 004°57'0 0.0
2014-Nov-25 20:31N 51°50' E 004°57'0 0.0
2014-Nov-25 19:28N 51°50' E 004°57'0 0.0
2014-Nov-25 18:28N 51°50' E 004°57'0 0.0
2014-Nov-25 17:33N 51°50' E 004°57'0 0.0
2014-Nov-25 16:29N 51°50' E 004°57'0 0.0
2014-Nov-25 15:26N 51°50' E 004°57'0 0.0
2014-Nov-25 14:32N 51°50' E 004°57'0 0.0
2014-Nov-25 13:31N 51°50' E 004°57'0 0.1
2014-Nov-25 12:33N 51°50' E 004°57'6 6.1
2014-Nov-25 11:33N 51°49' E 004°47'4 3.6
2014-Nov-25 10:33N 51°49' E 004°41'2 2.3
2014-Nov-25 09:34N 51°48' E 004°38'5 5.3
2014-Nov-25 08:34N 51°50' E 004°30'7 6.8
2014-Nov-25 07:33N 51°52' E 004°20'8 7.7
2014-Nov-25 06:33N 51°57' E 004°10'1110.6
2014-Nov-25 05:33N 51°59' E 003°53'1313.2
2014-Nov-25 04:33N 51°56' E 003°32'1313.1
2014-Nov-25 03:32N 51°48' E 003°15'1413.8
2014-Nov-25 02:33N 51°38' E 002°60'1513.9
2014-Nov-25 01:29N 51°29' E 002°41'1312.9
2014-Nov-25 00:28N 51°20' E 002°25'1212.7
2014-Nov-24 23:32N 51°14' E 002°09'1111.3
2014-Nov-24 22:33N 51°09' E 001°54'10 9.6
2014-Nov-24 21:34N 51°03' E 001°42'17510.9
2014-Nov-24 05:27N 50°13' W 002°43'1011.4
2014-Nov-24 04:33N 50°12' W 002°59'1210.9
2014-Nov-24 03:25N 50°11' W 003°18'  
Track history (hours):
 
Tides and Currents Weather Stations Pressure Air Temp Water Temp Dewpoint Dewpoint Depression Visibility Wind Speed Wind Dir Waves Ship Positions

Filia Ariea

Last reported at 2014-Nov-28 06:32 UTC. Time now 2014-Nov-28 22:53 UTC.
Position N 50°32' E 000°04'.

Length 90 m; draft 4.5 m.

Type: Cargo ship. MMSI: 244662000.

Date/timePositionNaut miles runAvg speedWind from/ knotsBaromVisibWave heightAir tempDewpointWater temp
2014-Nov-28 06:32N 50°32' E 000°04'1212.0
2014-Nov-28 05:33N 50°36' E 000°21'1211.6
2014-Nov-28 04:33N 50°41' E 000°38'1110.9
2014-Nov-28 03:33N 50°47' E 000°52'1310.2
2014-Nov-28 02:17N 50°55' E 001°08'810.3
2014-Nov-28 01:33N 50°60' E 001°18'1211.9
2014-Nov-28 00:33N 51°07' E 001°32'1413.8
2014-Nov-27 23:34N 51°17' E 001°48'1313.1
2014-Nov-27 22:33N 51°27' E 002°00'1312.3
2014-Nov-27 21:32N 51°37' E 002°13'59 9.7
2014-Nov-27 15:27N 52°03' E 003°40'1011.1
2014-Nov-27 14:33N 52°01' E 003°56'1211.9
2014-Nov-27 13:33N 51°56' E 004°13'7 7.5
2014-Nov-27 12:33N 51°54' E 004°25'0 0.0
2014-Nov-27 11:27N 51°54' E 004°25'0 0.0
2014-Nov-27 10:33N 51°54' E 004°25'0 0.0
2014-Nov-27 09:32N 51°54' E 004°25'0 0.0
2014-Nov-27 08:32N 51°54' E 004°25'0 0.0
2014-Nov-27 07:31N 51°54' E 004°25'0 0.0
2014-Nov-27 06:28N 51°54' E 004°25'0 0.0
2014-Nov-27 05:33N 51°54' E 004°25'0 0.0
2014-Nov-27 04:33N 51°54' E 004°25'0 0.0
2014-Nov-27 03:32N 51°54' E 004°25'0 0.0
2014-Nov-27 02:33N 51°54' E 004°25'0 0.0
2014-Nov-27 01:33N 51°54' E 004°25'0 0.0
2014-Nov-27 00:33N 51°54' E 004°25'4 3.8
2014-Nov-26 23:33N 51°52' E 004°20'1010.1
2014-Nov-26 22:34N 51°48' E 004°35'5 4.7
2014-Nov-26 21:33N 51°49' E 004°43'3 3.2
2014-Nov-26 20:33N 51°49' E 004°48'4 3.7
2014-Nov-26 19:33N 51°49' E 004°54'2 2.2
2014-Nov-26 18:33N 51°50' E 004°57'0 0.2
2014-Nov-26 17:31N 51°50' E 004°57'0 0.0
2014-Nov-26 16:31N 51°50' E 004°57'0 0.0
2014-Nov-26 15:31N 51°50' E 004°57'0 0.0
2014-Nov-26 14:30N 51°50' E 004°57'0 0.0
2014-Nov-26 13:33N 51°50' E 004°57'0 0.0
2014-Nov-26 12:32N 51°50' E 004°57'0 0.0
2014-Nov-26 11:32N 51°50' E 004°57'0 0.0
2014-Nov-26 10:28N 51°50' E 004°57'0 0.0
2014-Nov-26 09:28N 51°50' E 004°57'0 0.0
2014-Nov-26 08:31N 51°50' E 004°57'0 0.0
2014-Nov-26 07:33N 51°50' E 004°57'0 0.0
2014-Nov-26 06:33N 51°50' E 004°57'0 0.0
2014-Nov-26 05:32N 51°50' E 004°57'0 0.0
2014-Nov-26 04:32N 51°50' E 004°57'0 0.0
2014-Nov-26 03:25N 51°50' E 004°57'0 0.0
2014-Nov-26 02:31N 51°50' E 004°57'0 0.0
2014-Nov-26 01:31N 51°50' E 004°57'0 0.0
2014-Nov-26 00:30N 51°50' E 004°57'0 0.0
2014-Nov-25 23:33N 51°50' E 004°57'0 0.0
2014-Nov-25 22:32N 51°50' E 004°57'0 0.0
2014-Nov-25 21:32N 51°50' E 004°57'0 0.0
2014-Nov-25 20:31N 51°50' E 004°57'0 0.0
2014-Nov-25 19:28N 51°50' E 004°57'0 0.0
2014-Nov-25 18:28N 51°50' E 004°57'0 0.0
2014-Nov-25 17:33N 51°50' E 004°57'0 0.0
2014-Nov-25 16:29N 51°50' E 004°57'0 0.0
2014-Nov-25 15:26N 51°50' E 004°57'0 0.0
2014-Nov-25 14:32N 51°50' E 004°57'0 0.0
2014-Nov-25 13:31N 51°50' E 004°57'0 0.1
2014-Nov-25 12:33N 51°50' E 004°57'6 6.1
2014-Nov-25 11:33N 51°49' E 004°47'4 3.6
2014-Nov-25 10:33N 51°49' E 004°41'2 2.3
2014-Nov-25 09:34N 51°48' E 004°38'5 5.3
2014-Nov-25 08:34N 51°50' E 004°30'7 6.8
2014-Nov-25 07:33N 51°52' E 004°20'8 7.7
2014-Nov-25 06:33N 51°57' E 004°10'1110.6
2014-Nov-25 05:33N 51°59' E 003°53'1313.2
2014-Nov-25 04:33N 51°56' E 003°32'1313.1
2014-Nov-25 03:32N 51°48' E 003°15'1413.8
2014-Nov-25 02:33N 51°38' E 002°60'1513.9
2014-Nov-25 01:29N 51°29' E 002°41'1312.9
2014-Nov-25 00:28N 51°20' E 002°25'1212.7
2014-Nov-24 23:32N 51°14' E 002°09'1111.3
2014-Nov-24 22:33N 51°09' E 001°54'10 9.6
2014-Nov-24 21:34N 51°03' E 001°42'17510.9
2014-Nov-24 05:27N 50°13' W 002°43'1011.4
2014-Nov-24 04:33N 50°12' W 002°59'1210.9
2014-Nov-24 03:25N 50°11' W 003°18'  

Dump ship's entire track history